KMPZ/MPZ METAR and TAF weather

Enter ICAO airport designator
Station Type Date Time Source
KMPZ METAR 2022/06/27 16:35 UTC NOAA

KMPZ 271635Z AUTO 01010KT 10SM CLR 25/10 A3032 RMK AO2


Station Type Date Time Source
KMPZ Decoded METAR 2022/06/27 16:35 UTC NOAA

Mount Pleasant, Mount Pleasant Municipal Airport, IA, United States (KMPZ) 40-56-48N 091-30-40W
Jun 27, 2022 - 12:35 PM EDT / 2022.06.27 1635 UTC
Wind: from the N (010 degrees) at 12 MPH (10 KT):0
Visibility: 10 mile(s):0
Sky conditions: clear
Temperature: 77 F (25 C)
Dew Point: 50 F (10 C)
Relative Humidity: 38%
Pressure (altimeter): 30.32 in. Hg (1026 hPa)
ob: KMPZ 271635Z AUTO 01010KT 10SM CLR 25/10 A3032 RMK AO2
cycle: 16

Station Type Date Time Source
KMPZ TAF UTC NOAA

Error!

Example: see airport list